sensor_id;sensor_type;location;lat;lon;timestamp;P1;durP1;ratioP1;P2;durP2;ratioP2
26963;SDS011;14521;48.148;-1.656;2023-02-28T00:02:43;1.30;;;0.95;;
26963;SDS011;14521;48.148;-1.656;2023-02-28T00:06:07;1.23;;;1.10;;
26963;SDS011;14521;48.148;-1.656;2023-02-28T00:09:31;1.38;;;0.90;;
26963;SDS011;14521;48.148;-1.656;2023-02-28T00:12:54;1.48;;;1.20;;
26963;SDS011;14521;48.148;-1.656;2023-02-28T00:16:21;1.90;;;1.10;;
26963;SDS011;14521;48.148;-1.656;2023-02-28T00:19:44;1.70;;;1.00;;
26963;SDS011;14521;48.148;-1.656;2023-02-28T00:23:06;2.08;;;0.98;;
26963;SDS011;14521;48.148;-1.656;2023-02-28T00:26:29;1.02;;;0.93;;
26963;SDS011;14521;48.148;-1.656;2023-02-28T00:29:52;2.30;;;1.08;;
26963;SDS011;14521;48.148;-1.656;2023-02-28T00:33:15;1.02;;;0.80;;
26963;SDS011;14521;48.148;-1.656;2023-02-28T00:36:38;1.08;;;0.90;;
26963;SDS011;14521;48.148;-1.656;2023-02-28T00:40:00;1.30;;;1.20;;
26963;SDS011;14521;48.148;-1.656;2023-02-28T00:43:22;1.38;;;1.02;;
26963;SDS011;14521;48.148;-1.656;2023-02-28T00:46:45;4.13;;;1.05;;
26963;SDS011;14521;48.148;-1.656;2023-02-28T00:50:08;1.67;;;0.90;;
26963;SDS011;14521;48.148;-1.656;2023-02-28T00:53:31;1.15;;;0.90;;
26963;SDS011;14521;48.148;-1.656;2023-02-28T00:56:54;1.83;;;1.10;;
26963;SDS011;14521;48.148;-1.656;2023-02-28T01:00:16;1.30;;;0.95;;
26963;SDS011;14521;48.148;-1.656;2023-02-28T01:03:39;1.90;;;1.08;;
26963;SDS011;14521;48.148;-1.656;2023-02-28T01:07:02;1.58;;;1.20;;
26963;SDS011;14521;48.148;-1.656;2023-02-28T01:10:24;1.70;;;0.85;;
26963;SDS011;14521;48.148;-1.656;2023-02-28T01:13:49;1.17;;;1.08;;
26963;SDS011;14521;48.148;-1.656;2023-02-28T01:17:11;1.00;;;0.90;;
26963;SDS011;14521;48.148;-1.656;2023-02-28T01:20:36;1.20;;;1.10;;
26963;SDS011;14521;48.148;-1.656;2023-02-28T01:23:59;0.82;;;0.82;;
26963;SDS011;14521;48.148;-1.656;2023-02-28T01:27:21;1.00;;;0.93;;
26963;SDS011;14521;48.148;-1.656;2023-02-28T01:30:47;0.93;;;0.73;;
26963;SDS011;14521;48.148;-1.656;2023-02-28T01:34:10;1.40;;;1.10;;
26963;SDS011;14521;48.148;-1.656;2023-02-28T01:37:32;1.55;;;1.10;;
26963;SDS011;14521;48.148;-1.656;2023-02-28T01:40:54;3.22;;;0.82;;
26963;SDS011;14521;48.148;-1.656;2023-02-28T01:48:20;0.75;;;0.75;;
26963;SDS011;14521;48.148;-1.656;2023-02-28T01:51:51;1.38;;;0.90;;
26963;SDS011;14521;48.148;-1.656;2023-02-28T01:55:16;1.00;;;0.90;;
26963;SDS011;14521;48.148;-1.656;2023-02-28T01:58:42;1.08;;;1.00;;
26963;SDS011;14521;48.148;-1.656;2023-02-28T02:02:05;1.00;;;0.93;;
26963;SDS011;14521;48.148;-1.656;2023-02-28T02:05:28;1.20;;;1.00;;
26963;SDS011;14521;48.148;-1.656;2023-02-28T02:20:15;0.80;;;0.80;;
26963;SDS011;14521;48.148;-1.656;2023-02-28T02:24:05;0.98;;;0.77;;
26963;SDS011;14521;48.148;-1.656;2023-02-28T02:35:43;0.80;;;0.80;;
26963;SDS011;14521;48.148;-1.656;2023-02-28T02:46:21;1.80;;;0.95;;
26963;SDS011;14521;48.148;-1.656;2023-02-28T02:49:51;1.27;;;1.08;;
26963;SDS011;14521;48.148;-1.656;2023-02-28T02:53:18;0.73;;;0.68;;
26963;SDS011;14521;48.148;-1.656;2023-02-28T02:56:46;1.40;;;0.82;;
26963;SDS011;14521;48.148;-1.656;2023-02-28T03:00:11;1.05;;;1.02;;
26963;SDS011;14521;48.148;-1.656;2023-02-28T03:03:35;1.10;;;1.00;;
26963;SDS011;14521;48.148;-1.656;2023-02-28T03:06:58;1.60;;;0.80;;
26963;SDS011;14521;48.148;-1.656;2023-02-28T03:10:27;1.05;;;0.88;;
26963;SDS011;14521;48.148;-1.656;2023-02-28T03:14:08;2.05;;;1.08;;
26963;SDS011;14521;48.148;-1.656;2023-02-28T03:32:31;2.33;;;0.80;;
26963;SDS011;14521;48.148;-1.656;2023-02-28T03:36:02;0.80;;;0.80;;
26963;SDS011;14521;48.148;-1.656;2023-02-28T03:43:01;0.60;;;0.60;;
26963;SDS011;14521;48.148;-1.656;2023-02-28T03:46:32;1.27;;;1.17;;
26963;SDS011;14521;48.148;-1.656;2023-02-28T03:50:03;0.90;;;0.77;;
26963;SDS011;14521;48.148;-1.656;2023-02-28T03:53:42;1.17;;;1.08;;
26963;SDS011;14521;48.148;-1.656;2023-02-28T04:00:50;0.73;;;0.68;;
26963;SDS011;14521;48.148;-1.656;2023-02-28T04:04:18;1.80;;;0.90;;
26963;SDS011;14521;48.148;-1.656;2023-02-28T04:07:41;2.58;;;0.75;;
26963;SDS011;14521;48.148;-1.656;2023-02-28T04:11:04;0.70;;;0.68;;
26963;SDS011;14521;48.148;-1.656;2023-02-28T04:14:36;0.77;;;0.70;;
26963;SDS011;14521;48.148;-1.656;2023-02-28T04:17:59;0.70;;;0.70;;
26963;SDS011;14521;48.148;-1.656;2023-02-28T04:21:21;0.95;;;0.75;;
26963;SDS011;14521;48.148;-1.656;2023-02-28T04:24:44;0.55;;;0.55;;
26963;SDS011;14521;48.148;-1.656;2023-02-28T04:28:06;2.47;;;0.80;;
26963;SDS011;14521;48.148;-1.656;2023-02-28T04:31:29;0.85;;;0.73;;
26963;SDS011;14521;48.148;-1.656;2023-02-28T04:34:51;0.80;;;0.80;;
26963;SDS011;14521;48.148;-1.656;2023-02-28T04:38:14;2.20;;;0.80;;
26963;SDS011;14521;48.148;-1.656;2023-02-28T04:41:36;0.95;;;0.95;;
26963;SDS011;14521;48.148;-1.656;2023-02-28T04:44:59;1.08;;;0.90;;
26963;SDS011;14521;48.148;-1.656;2023-02-28T04:48:22;0.85;;;0.75;;
26963;SDS011;14521;48.148;-1.656;2023-02-28T04:51:49;1.10;;;0.70;;
26963;SDS011;14521;48.148;-1.656;2023-02-28T04:55:11;0.77;;;0.77;;
26963;SDS011;14521;48.148;-1.656;2023-02-28T04:58:34;1.92;;;0.75;;
26963;SDS011;14521;48.148;-1.656;2023-02-28T05:01:56;0.80;;;0.80;;
26963;SDS011;14521;48.148;-1.656;2023-02-28T05:05:19;0.75;;;0.75;;
26963;SDS011;14521;48.148;-1.656;2023-02-28T05:08:41;1.75;;;0.70;;
26963;SDS011;14521;48.148;-1.656;2023-02-28T05:12:04;1.60;;;0.77;;
26963;SDS011;14521;48.148;-1.656;2023-02-28T05:15:26;2.45;;;0.90;;
26963;SDS011;14521;48.148;-1.656;2023-02-28T05:18:48;0.60;;;0.60;;
26963;SDS011;14521;48.148;-1.656;2023-02-28T05:22:14;1.05;;;0.57;;
26963;SDS011;14521;48.148;-1.656;2023-02-28T05:25:40;1.60;;;0.82;;
26963;SDS011;14521;48.148;-1.656;2023-02-28T05:29:03;0.60;;;0.60;;
26963;SDS011;14521;48.148;-1.656;2023-02-28T05:32:26;1.35;;;0.73;;
26963;SDS011;14521;48.148;-1.656;2023-02-28T05:35:49;0.60;;;0.60;;
26963;SDS011;14521;48.148;-1.656;2023-02-28T05:39:11;0.65;;;0.65;;
26963;SDS011;14521;48.148;-1.656;2023-02-28T05:42:34;1.58;;;0.50;;
26963;SDS011;14521;48.148;-1.656;2023-02-28T05:45:57;0.57;;;0.57;;
26963;SDS011;14521;48.148;-1.656;2023-02-28T05:49:19;1.45;;;0.73;;
26963;SDS011;14521;48.148;-1.656;2023-02-28T05:52:41;2.42;;;0.77;;
26963;SDS011;14521;48.148;-1.656;2023-02-28T05:56:04;1.52;;;0.60;;
26963;SDS011;14521;48.148;-1.656;2023-02-28T05:59:26;1.20;;;0.70;;
26963;SDS011;14521;48.148;-1.656;2023-02-28T06:02:48;0.75;;;0.57;;
26963;SDS011;14521;48.148;-1.656;2023-02-28T06:06:11;1.85;;;0.68;;
26963;SDS011;14521;48.148;-1.656;2023-02-28T06:09:33;1.25;;;0.50;;
26963;SDS011;14521;48.148;-1.656;2023-02-28T06:12:56;2.17;;;0.70;;
26963;SDS011;14521;48.148;-1.656;2023-02-28T06:16:22;0.65;;;0.60;;
26963;SDS011;14521;48.148;-1.656;2023-02-28T06:19:46;0.70;;;0.70;;
26963;SDS011;14521;48.148;-1.656;2023-02-28T06:23:09;0.70;;;0.57;;
26963;SDS011;14521;48.148;-1.656;2023-02-28T06:26:31;0.77;;;0.65;;
26963;SDS011;14521;48.148;-1.656;2023-02-28T06:29:54;0.57;;;0.50;;
26963;SDS011;14521;48.148;-1.656;2023-02-28T06:33:19;3.13;;;0.60;;
26963;SDS011;14521;48.148;-1.656;2023-02-28T06:36:42;1.05;;;0.55;;
26963;SDS011;14521;48.148;-1.656;2023-02-28T06:40:05;8.50;;;0.75;;
26963;SDS011;14521;48.148;-1.656;2023-02-28T06:43:29;1.35;;;0.50;;
26963;SDS011;14521;48.148;-1.656;2023-02-28T06:46:53;5.90;;;0.80;;
26963;SDS011;14521;48.148;-1.656;2023-02-28T06:50:15;0.50;;;0.50;;
26963;SDS011;14521;48.148;-1.656;2023-02-28T06:57:03;1.10;;;0.55;;
26963;SDS011;14521;48.148;-1.656;2023-02-28T07:00:26;0.40;;;0.40;;
26963;SDS011;14521;48.148;-1.656;2023-02-28T07:03:48;0.80;;;0.70;;
26963;SDS011;14521;48.148;-1.656;2023-02-28T07:10:39;0.90;;;0.60;;
26963;SDS011;14521;48.148;-1.656;2023-02-28T07:14:02;0.68;;;0.68;;
26963;SDS011;14521;48.148;-1.656;2023-02-28T07:17:24;1.42;;;0.85;;
26963;SDS011;14521;48.148;-1.656;2023-02-28T07:20:47;1.10;;;1.00;;
26963;SDS011;14521;48.148;-1.656;2023-02-28T07:24:09;3.08;;;1.15;;
26963;SDS011;14521;48.148;-1.656;2023-02-28T07:27:32;1.25;;;1.15;;
26963;SDS011;14521;48.148;-1.656;2023-02-28T07:30:55;3.13;;;1.23;;
26963;SDS011;14521;48.148;-1.656;2023-02-28T07:34:19;1.23;;;1.10;;
26963;SDS011;14521;48.148;-1.656;2023-02-28T07:37:42;1.98;;;1.10;;
26963;SDS011;14521;48.148;-1.656;2023-02-28T07:41:04;1.77;;;1.20;;
26963;SDS011;14521;48.148;-1.656;2023-02-28T07:44:26;1.98;;;1.08;;
26963;SDS011;14521;48.148;-1.656;2023-02-28T07:47:49;2.40;;;1.05;;
26963;SDS011;14521;48.148;-1.656;2023-02-28T07:51:11;9.18;;;1.08;;
26963;SDS011;14521;48.148;-1.656;2023-02-28T07:54:34;1.67;;;0.75;;
26963;SDS011;14521;48.148;-1.656;2023-02-28T07:57:57;3.17;;;1.05;;
26963;SDS011;14521;48.148;-1.656;2023-02-28T08:01:19;1.48;;;1.20;;
26963;SDS011;14521;48.148;-1.656;2023-02-28T08:04:42;1.27;;;1.10;;
26963;SDS011;14521;48.148;-1.656;2023-02-28T08:08:04;3.28;;;1.10;;
26963;SDS011;14521;48.148;-1.656;2023-02-28T08:11:27;1.75;;;1.05;;
26963;SDS011;14521;48.148;-1.656;2023-02-28T08:14:50;1.35;;;1.13;;
26963;SDS011;14521;48.148;-1.656;2023-02-28T08:18:12;3.10;;;1.02;;
26963;SDS011;14521;48.148;-1.656;2023-02-28T08:21:34;1.45;;;1.13;;
26963;SDS011;14521;48.148;-1.656;2023-02-28T08:24:56;3.83;;;1.20;;
26963;SDS011;14521;48.148;-1.656;2023-02-28T08:28:19;1.88;;;1.00;;
26963;SDS011;14521;48.148;-1.656;2023-02-28T08:31:41;1.88;;;0.93;;
26963;SDS011;14521;48.148;-1.656;2023-02-28T08:35:04;1.80;;;1.33;;
26963;SDS011;14521;48.148;-1.656;2023-02-28T08:38:26;1.20;;;0.95;;
26963;SDS011;14521;48.148;-1.656;2023-02-28T08:41:49;3.05;;;0.90;;
26963;SDS011;14521;48.148;-1.656;2023-02-28T08:45:27;1.35;;;1.00;;
26963;SDS011;14521;48.148;-1.656;2023-02-28T08:48:53;3.30;;;0.90;;
26963;SDS011;14521;48.148;-1.656;2023-02-28T08:52:16;9.00;;;3.85;;
26963;SDS011;14521;48.148;-1.656;2023-02-28T08:55:38;5.07;;;4.10;;
26963;SDS011;14521;48.148;-1.656;2023-02-28T08:59:00;5.00;;;3.10;;
26963;SDS011;14521;48.148;-1.656;2023-02-28T09:02:23;5.57;;;3.05;;
26963;SDS011;14521;48.148;-1.656;2023-02-28T09:05:54;5.32;;;3.42;;
26963;SDS011;14521;48.148;-1.656;2023-02-28T09:09:18;3.70;;;2.30;;
26963;SDS011;14521;48.148;-1.656;2023-02-28T09:12:40;3.90;;;2.35;;
26963;SDS011;14521;48.148;-1.656;2023-02-28T09:16:04;5.13;;;2.22;;
26963;SDS011;14521;48.148;-1.656;2023-02-28T09:19:27;4.63;;;2.05;;
26963;SDS011;14521;48.148;-1.656;2023-02-28T09:22:50;3.65;;;2.25;;
26963;SDS011;14521;48.148;-1.656;2023-02-28T09:26:23;11.25;;;2.15;;
26963;SDS011;14521;48.148;-1.656;2023-02-28T09:29:47;4.70;;;2.03;;
26963;SDS011;14521;48.148;-1.656;2023-02-28T09:33:09;6.00;;;1.80;;
26963;SDS011;14521;48.148;-1.656;2023-02-28T09:36:31;1.52;;;1.42;;
26963;SDS011;14521;48.148;-1.656;2023-02-28T09:40:05;1.88;;;1.50;;
26963;SDS011;14521;48.148;-1.656;2023-02-28T09:43:29;2.58;;;1.75;;
26963;SDS011;14521;48.148;-1.656;2023-02-28T09:47:01;1.60;;;1.23;;
26963;SDS011;14521;48.148;-1.656;2023-02-28T09:50:46;3.92;;;1.52;;
26963;SDS011;14521;48.148;-1.656;2023-02-28T09:54:13;2.33;;;1.52;;
26963;SDS011;14521;48.148;-1.656;2023-02-28T09:57:40;4.60;;;1.73;;
26963;SDS011;14521;48.148;-1.656;2023-02-28T10:08:06;2.08;;;1.20;;
26963;SDS011;14521;48.148;-1.656;2023-02-28T10:11:39;1.98;;;1.40;;
26963;SDS011;14521;48.148;-1.656;2023-02-28T10:15:04;6.75;;;1.40;;
26963;SDS011;14521;48.148;-1.656;2023-02-28T10:18:28;2.65;;;1.30;;
26963;SDS011;14521;48.148;-1.656;2023-02-28T10:21:59;1.25;;;1.17;;
26963;SDS011;14521;48.148;-1.656;2023-02-28T10:25:57;1.90;;;1.25;;
26963;SDS011;14521;48.148;-1.656;2023-02-28T10:29:21;3.70;;;1.17;;
26963;SDS011;14521;48.148;-1.656;2023-02-28T10:32:53;1.50;;;1.13;;
26963;SDS011;14521;48.148;-1.656;2023-02-28T10:36:17;0.70;;;0.70;;
26963;SDS011;14521;48.148;-1.656;2023-02-28T10:46:36;1.73;;;1.02;;
26963;SDS011;14521;48.148;-1.656;2023-02-28T10:50:02;2.38;;;1.02;;
26963;SDS011;14521;48.148;-1.656;2023-02-28T10:57:06;1.75;;;1.15;;
26963;SDS011;14521;48.148;-1.656;2023-02-28T11:00:43;3.45;;;1.05;;
26963;SDS011;14521;48.148;-1.656;2023-02-28T11:04:19;2.38;;;1.00;;
26963;SDS011;14521;48.148;-1.656;2023-02-28T11:07:44;5.85;;;0.85;;
26963;SDS011;14521;48.148;-1.656;2023-02-28T11:11:17;2.00;;;0.95;;
26963;SDS011;14521;48.148;-1.656;2023-02-28T11:14:48;0.82;;;0.80;;
26963;SDS011;14521;48.148;-1.656;2023-02-28T11:21:53;1.65;;;1.00;;
26963;SDS011;14521;48.148;-1.656;2023-02-28T11:28:50;0.75;;;0.75;;
26963;SDS011;14521;48.148;-1.656;2023-02-28T11:32:30;1.95;;;0.80;;
26963;SDS011;14521;48.148;-1.656;2023-02-28T11:35:53;2.38;;;0.85;;
26963;SDS011;14521;48.148;-1.656;2023-02-28T11:39:20;0.70;;;0.63;;
26963;SDS011;14521;48.148;-1.656;2023-02-28T11:57:21;1.83;;;0.70;;
26963;SDS011;14521;48.148;-1.656;2023-02-28T12:12:19;0.75;;;0.70;;
26963;SDS011;14521;48.148;-1.656;2023-02-28T12:27:38;0.98;;;0.80;;
26963;SDS011;14521;48.148;-1.656;2023-02-28T12:31:06;1.50;;;0.90;;
26963;SDS011;14521;48.148;-1.656;2023-02-28T12:34:34;0.70;;;0.70;;
26963;SDS011;14521;48.148;-1.656;2023-02-28T12:38:05;3.75;;;0.70;;
26963;SDS011;14521;48.148;-1.656;2023-02-28T12:41:41;2.30;;;0.55;;
26963;SDS011;14521;48.148;-1.656;2023-02-28T12:48:45;0.70;;;0.70;;
26963;SDS011;14521;48.148;-1.656;2023-02-28T12:52:10;1.75;;;0.88;;
26963;SDS011;14521;48.148;-1.656;2023-02-28T12:55:38;0.85;;;0.50;;
26963;SDS011;14521;48.148;-1.656;2023-02-28T12:59:37;0.68;;;0.60;;
26963;SDS011;14521;48.148;-1.656;2023-02-28T13:11:00;2.25;;;0.93;;
26963;SDS011;14521;48.148;-1.656;2023-02-28T13:14:27;0.88;;;0.68;;
26963;SDS011;14521;48.148;-1.656;2023-02-28T13:17:52;1.17;;;0.50;;
26963;SDS011;14521;48.148;-1.656;2023-02-28T13:21:29;2.05;;;0.60;;
26963;SDS011;14521;48.148;-1.656;2023-02-28T13:24:53;0.60;;;0.55;;
26963;SDS011;14521;48.148;-1.656;2023-02-28T13:32:20;0.50;;;0.50;;
26963;SDS011;14521;48.148;-1.656;2023-02-28T13:36:06;0.55;;;0.55;;
26963;SDS011;14521;48.148;-1.656;2023-02-28T13:42:57;0.73;;;0.70;;
26963;SDS011;14521;48.148;-1.656;2023-02-28T13:46:19;1.27;;;0.57;;
26963;SDS011;14521;48.148;-1.656;2023-02-28T13:49:41;0.57;;;0.57;;
26963;SDS011;14521;48.148;-1.656;2023-02-28T13:56:40;1.02;;;0.68;;
26963;SDS011;14521;48.148;-1.656;2023-02-28T14:07:29;4.47;;;1.00;;
26963;SDS011;14521;48.148;-1.656;2023-02-28T14:11:08;0.90;;;0.40;;
26963;SDS011;14521;48.148;-1.656;2023-02-28T14:36:36;0.98;;;0.57;;
26963;SDS011;14521;48.148;-1.656;2023-02-28T14:40:00;0.68;;;0.45;;
26963;SDS011;14521;48.148;-1.656;2023-02-28T14:43:26;0.47;;;0.47;;
26963;SDS011;14521;48.148;-1.656;2023-02-28T14:46:50;1.20;;;0.65;;
26963;SDS011;14521;48.148;-1.656;2023-02-28T14:50:22;4.90;;;0.57;;
26963;SDS011;14521;48.148;-1.656;2023-02-28T14:53:52;0.80;;;0.45;;
26963;SDS011;14521;48.148;-1.656;2023-02-28T14:57:21;3.05;;;0.50;;
26963;SDS011;14521;48.148;-1.656;2023-02-28T15:00:50;0.47;;;0.45;;
26963;SDS011;14521;48.148;-1.656;2023-02-28T15:04:24;0.57;;;0.52;;
26963;SDS011;14521;48.148;-1.656;2023-02-28T15:11:48;0.57;;;0.57;;
26963;SDS011;14521;48.148;-1.656;2023-02-28T15:15:15;0.50;;;0.50;;
26963;SDS011;14521;48.148;-1.656;2023-02-28T15:22:14;0.57;;;0.50;;
26963;SDS011;14521;48.148;-1.656;2023-02-28T15:25:40;0.68;;;0.68;;
26963;SDS011;14521;48.148;-1.656;2023-02-28T15:29:07;2.03;;;0.73;;
26963;SDS011;14521;48.148;-1.656;2023-02-28T15:32:35;0.60;;;0.52;;
26963;SDS011;14521;48.148;-1.656;2023-02-28T15:36:34;0.57;;;0.57;;
26963;SDS011;14521;48.148;-1.656;2023-02-28T15:39:51;1.27;;;0.88;;
26963;SDS011;14521;48.148;-1.656;2023-02-28T15:43:16;0.75;;;0.75;;
26963;SDS011;14521;48.148;-1.656;2023-02-28T15:46:40;0.77;;;0.77;;
26963;SDS011;14521;48.148;-1.656;2023-02-28T15:50:10;0.90;;;0.88;;
26963;SDS011;14521;48.148;-1.656;2023-02-28T15:53:37;1.02;;;0.90;;
26963;SDS011;14521;48.148;-1.656;2023-02-28T15:57:07;4.70;;;0.80;;
26963;SDS011;14521;48.148;-1.656;2023-02-28T16:00:34;1.55;;;0.80;;
26963;SDS011;14521;48.148;-1.656;2023-02-28T16:03:59;0.70;;;0.70;;
26963;SDS011;14521;48.148;-1.656;2023-02-28T16:07:42;0.90;;;0.85;;
26963;SDS011;14521;48.148;-1.656;2023-02-28T16:11:07;0.98;;;0.85;;
26963;SDS011;14521;48.148;-1.656;2023-02-28T16:14:31;2.05;;;0.75;;
26963;SDS011;14521;48.148;-1.656;2023-02-28T16:17:54;0.50;;;0.47;;
26963;SDS011;14521;48.148;-1.656;2023-02-28T16:21:17;1.10;;;1.00;;
26963;SDS011;14521;48.148;-1.656;2023-02-28T16:24:40;1.10;;;1.00;;
26963;SDS011;14521;48.148;-1.656;2023-02-28T16:28:03;1.13;;;0.80;;
26963;SDS011;14521;48.148;-1.656;2023-02-28T16:31:28;5.38;;;1.08;;
26963;SDS011;14521;48.148;-1.656;2023-02-28T16:34:52;8.45;;;2.00;;
26963;SDS011;14521;48.148;-1.656;2023-02-28T16:38:14;1.38;;;0.57;;
26963;SDS011;14521;48.148;-1.656;2023-02-28T16:41:36;0.90;;;0.70;;
26963;SDS011;14521;48.148;-1.656;2023-02-28T16:44:59;0.77;;;0.77;;
26963;SDS011;14521;48.148;-1.656;2023-02-28T16:48:21;0.73;;;0.68;;
26963;SDS011;14521;48.148;-1.656;2023-02-28T16:51:43;2.08;;;0.52;;
26963;SDS011;14521;48.148;-1.656;2023-02-28T16:55:06;0.80;;;0.80;;
26963;SDS011;14521;48.148;-1.656;2023-02-28T16:58:28;0.82;;;0.82;;
26963;SDS011;14521;48.148;-1.656;2023-02-28T17:01:51;0.63;;;0.60;;
26963;SDS011;14521;48.148;-1.656;2023-02-28T17:05:14;1.33;;;0.60;;
26963;SDS011;14521;48.148;-1.656;2023-02-28T17:08:36;1.20;;;0.75;;
26963;SDS011;14521;48.148;-1.656;2023-02-28T17:11:59;1.48;;;0.90;;
26963;SDS011;14521;48.148;-1.656;2023-02-28T17:15:21;1.00;;;0.90;;
26963;SDS011;14521;48.148;-1.656;2023-02-28T17:18:44;0.68;;;0.65;;
26963;SDS011;14521;48.148;-1.656;2023-02-28T17:22:07;1.00;;;0.70;;
26963;SDS011;14521;48.148;-1.656;2023-02-28T17:25:30;0.80;;;0.80;;
26963;SDS011;14521;48.148;-1.656;2023-02-28T17:28:52;0.77;;;0.70;;
26963;SDS011;14521;48.148;-1.656;2023-02-28T17:32:17;1.75;;;0.80;;
26963;SDS011;14521;48.148;-1.656;2023-02-28T17:35:39;0.82;;;0.82;;
26963;SDS011;14521;48.148;-1.656;2023-02-28T17:39:02;0.95;;;0.80;;
26963;SDS011;14521;48.148;-1.656;2023-02-28T17:42:27;1.63;;;1.08;;
26963;SDS011;14521;48.148;-1.656;2023-02-28T17:45:49;1.60;;;1.50;;
26963;SDS011;14521;48.148;-1.656;2023-02-28T17:49:12;1.77;;;1.50;;
26963;SDS011;14521;48.148;-1.656;2023-02-28T17:52:34;1.60;;;1.27;;
26963;SDS011;14521;48.148;-1.656;2023-02-28T17:55:58;1.48;;;1.27;;
26963;SDS011;14521;48.148;-1.656;2023-02-28T17:59:20;3.10;;;1.17;;
26963;SDS011;14521;48.148;-1.656;2023-02-28T18:02:43;1.35;;;1.25;;
26963;SDS011;14521;48.148;-1.656;2023-02-28T18:06:05;1.85;;;1.17;;
26963;SDS011;14521;48.148;-1.656;2023-02-28T18:09:28;1.67;;;1.50;;
26963;SDS011;14521;48.148;-1.656;2023-02-28T18:12:51;0.85;;;0.85;;
26963;SDS011;14521;48.148;-1.656;2023-02-28T18:16:13;1.85;;;1.00;;
26963;SDS011;14521;48.148;-1.656;2023-02-28T18:19:36;1.30;;;1.20;;
26963;SDS011;14521;48.148;-1.656;2023-02-28T18:22:59;1.70;;;1.08;;
26963;SDS011;14521;48.148;-1.656;2023-02-28T18:26:22;1.35;;;1.10;;
26963;SDS011;14521;48.148;-1.656;2023-02-28T18:29:44;1.20;;;1.10;;
26963;SDS011;14521;48.148;-1.656;2023-02-28T18:33:06;6.15;;;1.08;;
26963;SDS011;14521;48.148;-1.656;2023-02-28T18:36:29;6.72;;;1.20;;
26963;SDS011;14521;48.148;-1.656;2023-02-28T18:39:52;2.55;;;1.48;;
26963;SDS011;14521;48.148;-1.656;2023-02-28T18:43:14;2.15;;;1.50;;
26963;SDS011;14521;48.148;-1.656;2023-02-28T18:46:37;1.48;;;1.20;;
26963;SDS011;14521;48.148;-1.656;2023-02-28T18:49:59;0.90;;;0.90;;
26963;SDS011;14521;48.148;-1.656;2023-02-28T18:53:22;1.30;;;1.00;;
26963;SDS011;14521;48.148;-1.656;2023-02-28T18:56:45;1.85;;;1.13;;
26963;SDS011;14521;48.148;-1.656;2023-02-28T19:00:07;1.30;;;1.20;;
26963;SDS011;14521;48.148;-1.656;2023-02-28T19:03:30;1.40;;;1.10;;
26963;SDS011;14521;48.148;-1.656;2023-02-28T19:06:52;1.25;;;1.10;;
26963;SDS011;14521;48.148;-1.656;2023-02-28T19:10:15;0.95;;;0.90;;
26963;SDS011;14521;48.148;-1.656;2023-02-28T19:13:38;2.95;;;0.98;;
26963;SDS011;14521;48.148;-1.656;2023-02-28T19:17:00;3.72;;;1.23;;
26963;SDS011;14521;48.148;-1.656;2023-02-28T19:20:23;1.15;;;1.08;;
26963;SDS011;14521;48.148;-1.656;2023-02-28T19:23:45;1.73;;;0.88;;
26963;SDS011;14521;48.148;-1.656;2023-02-28T19:27:07;1.05;;;0.90;;
26963;SDS011;14521;48.148;-1.656;2023-02-28T19:30:30;1.27;;;0.90;;
26963;SDS011;14521;48.148;-1.656;2023-02-28T19:33:52;0.80;;;0.80;;
26963;SDS011;14521;48.148;-1.656;2023-02-28T19:37:14;2.88;;;1.00;;
26963;SDS011;14521;48.148;-1.656;2023-02-28T19:40:37;1.02;;;0.95;;
26963;SDS011;14521;48.148;-1.656;2023-02-28T19:44:00;0.98;;;0.95;;
26963;SDS011;14521;48.148;-1.656;2023-02-28T19:47:22;1.52;;;0.90;;
26963;SDS011;14521;48.148;-1.656;2023-02-28T19:50:44;2.67;;;0.90;;
26963;SDS011;14521;48.148;-1.656;2023-02-28T19:54:06;1.15;;;0.75;;
26963;SDS011;14521;48.148;-1.656;2023-02-28T19:57:29;1.05;;;0.95;;
26963;SDS011;14521;48.148;-1.656;2023-02-28T20:00:51;1.05;;;0.95;;
26963;SDS011;14521;48.148;-1.656;2023-02-28T20:04:13;5.47;;;0.85;;
26963;SDS011;14521;48.148;-1.656;2023-02-28T20:07:36;1.35;;;0.82;;
26963;SDS011;14521;48.148;-1.656;2023-02-28T20:11:02;0.77;;;0.77;;
26963;SDS011;14521;48.148;-1.656;2023-02-28T20:14:29;0.60;;;0.60;;
26963;SDS011;14521;48.148;-1.656;2023-02-28T20:17:51;0.82;;;0.82;;
26963;SDS011;14521;48.148;-1.656;2023-02-28T20:21:13;0.98;;;0.93;;
26963;SDS011;14521;48.148;-1.656;2023-02-28T20:24:37;0.80;;;0.80;;
26963;SDS011;14521;48.148;-1.656;2023-02-28T20:27:59;1.00;;;0.90;;
26963;SDS011;14521;48.148;-1.656;2023-02-28T20:31:22;1.08;;;0.98;;
26963;SDS011;14521;48.148;-1.656;2023-02-28T20:34:46;0.80;;;0.80;;
26963;SDS011;14521;48.148;-1.656;2023-02-28T20:38:08;0.60;;;0.55;;
26963;SDS011;14521;48.148;-1.656;2023-02-28T20:41:31;2.35;;;0.90;;
26963;SDS011;14521;48.148;-1.656;2023-02-28T20:44:54;1.17;;;1.08;;
26963;SDS011;14521;48.148;-1.656;2023-02-28T20:48:16;0.77;;;0.77;;
26963;SDS011;14521;48.148;-1.656;2023-02-28T20:51:38;0.80;;;0.80;;
26963;SDS011;14521;48.148;-1.656;2023-02-28T20:55:02;1.58;;;1.15;;
26963;SDS011;14521;48.148;-1.656;2023-02-28T20:58:26;1.50;;;0.80;;
26963;SDS011;14521;48.148;-1.656;2023-02-28T21:05:13;2.03;;;1.00;;
26963;SDS011;14521;48.148;-1.656;2023-02-28T21:08:36;1.02;;;0.70;;
26963;SDS011;14521;48.148;-1.656;2023-02-28T21:11:59;3.42;;;0.95;;
26963;SDS011;14521;48.148;-1.656;2023-02-28T21:15:21;1.50;;;0.95;;
26963;SDS011;14521;48.148;-1.656;2023-02-28T21:18:44;3.35;;;1.10;;
26963;SDS011;14521;48.148;-1.656;2023-02-28T21:22:06;0.65;;;0.65;;
26963;SDS011;14521;48.148;-1.656;2023-02-28T21:25:29;0.93;;;0.90;;
26963;SDS011;14521;48.148;-1.656;2023-02-28T21:28:52;1.13;;;0.90;;
26963;SDS011;14521;48.148;-1.656;2023-02-28T21:32:16;2.38;;;1.10;;
26963;SDS011;14521;48.148;-1.656;2023-02-28T21:35:38;1.25;;;0.73;;
26963;SDS011;14521;48.148;-1.656;2023-02-28T21:39:03;1.35;;;0.73;;
26963;SDS011;14521;48.148;-1.656;2023-02-28T21:42:30;1.88;;;1.00;;
26963;SDS011;14521;48.148;-1.656;2023-02-28T21:45:52;2.10;;;0.88;;
26963;SDS011;14521;48.148;-1.656;2023-02-28T21:49:15;0.90;;;0.90;;
26963;SDS011;14521;48.148;-1.656;2023-02-28T21:52:37;0.77;;;0.77;;
26963;SDS011;14521;48.148;-1.656;2023-02-28T21:56:00;1.23;;;1.00;;
26963;SDS011;14521;48.148;-1.656;2023-02-28T21:59:23;0.80;;;0.80;;
26963;SDS011;14521;48.148;-1.656;2023-02-28T22:02:45;0.90;;;0.90;;
26963;SDS011;14521;48.148;-1.656;2023-02-28T22:06:12;0.68;;;0.68;;
26963;SDS011;14521;48.148;-1.656;2023-02-28T22:09:34;0.90;;;0.90;;
26963;SDS011;14521;48.148;-1.656;2023-02-28T22:12:57;0.80;;;0.80;;
26963;SDS011;14521;48.148;-1.656;2023-02-28T22:16:23;0.85;;;0.85;;
26963;SDS011;14521;48.148;-1.656;2023-02-28T22:23:09;0.95;;;0.82;;
26963;SDS011;14521;48.148;-1.656;2023-02-28T22:26:32;1.35;;;1.00;;
26963;SDS011;14521;48.148;-1.656;2023-02-28T22:29:54;0.77;;;0.77;;
26963;SDS011;14521;48.148;-1.656;2023-02-28T22:33:17;1.00;;;1.00;;
26963;SDS011;14521;48.148;-1.656;2023-02-28T22:36:40;0.70;;;0.70;;
26963;SDS011;14521;48.148;-1.656;2023-02-28T22:40:03;0.90;;;0.90;;
26963;SDS011;14521;48.148;-1.656;2023-02-28T22:43:26;1.02;;;0.80;;
26963;SDS011;14521;48.148;-1.656;2023-02-28T22:46:52;0.75;;;0.75;;
26963;SDS011;14521;48.148;-1.656;2023-02-28T22:50:15;1.08;;;0.98;;
26963;SDS011;14521;48.148;-1.656;2023-02-28T22:53:38;1.02;;;0.95;;
26963;SDS011;14521;48.148;-1.656;2023-02-28T22:57:00;1.00;;;1.00;;
26963;SDS011;14521;48.148;-1.656;2023-02-28T23:00:22;1.25;;;1.00;;
26963;SDS011;14521;48.148;-1.656;2023-02-28T23:03:45;3.13;;;0.77;;
26963;SDS011;14521;48.148;-1.656;2023-02-28T23:07:07;1.02;;;1.00;;
26963;SDS011;14521;48.148;-1.656;2023-02-28T23:10:30;1.65;;;1.13;;
26963;SDS011;14521;48.148;-1.656;2023-02-28T23:13:52;1.40;;;1.30;;
26963;SDS011;14521;48.148;-1.656;2023-02-28T23:17:21;2.30;;;2.20;;
26963;SDS011;14521;48.148;-1.656;2023-02-28T23:20:43;1.40;;;1.15;;
26963;SDS011;14521;48.148;-1.656;2023-02-28T23:24:06;1.63;;;1.50;;